sensor_id;sensor_type;location;lat;lon;timestamp;P1;durP1;ratioP1;P2;durP2;ratioP2
77332;SDS011;66408;51.326;12.070;2023-06-24T00:00:02;13.32;;;7.70;;
77332;SDS011;66408;51.326;12.070;2023-06-24T00:02:34;18.75;;;8.65;;
77332;SDS011;66408;51.326;12.070;2023-06-24T00:05:04;19.02;;;8.73;;
77332;SDS011;66408;51.326;12.070;2023-06-24T00:10:02;17.55;;;8.90;;
77332;SDS011;66408;51.326;12.070;2023-06-24T00:12:30;19.35;;;9.18;;
77332;SDS011;66408;51.326;12.070;2023-06-24T00:14:56;18.88;;;8.48;;
77332;SDS011;66408;51.326;12.070;2023-06-24T00:17:24;17.17;;;8.73;;
77332;SDS011;66408;51.326;12.070;2023-06-24T00:19:54;22.10;;;9.48;;
77332;SDS011;66408;51.326;12.070;2023-06-24T00:22:21;16.60;;;8.77;;
77332;SDS011;66408;51.326;12.070;2023-06-24T00:24:49;15.57;;;8.65;;
77332;SDS011;66408;51.326;12.070;2023-06-24T00:27:16;15.35;;;8.55;;
77332;SDS011;66408;51.326;12.070;2023-06-24T00:29:43;14.57;;;8.43;;
77332;SDS011;66408;51.326;12.070;2023-06-24T00:32:10;14.15;;;8.15;;
77332;SDS011;66408;51.326;12.070;2023-06-24T00:34:36;17.20;;;8.05;;
77332;SDS011;66408;51.326;12.070;2023-06-24T00:37:03;22.30;;;8.32;;
77332;SDS011;66408;51.326;12.070;2023-06-24T00:39:30;18.52;;;7.95;;
77332;SDS011;66408;51.326;12.070;2023-06-24T00:41:56;20.13;;;8.60;;
77332;SDS011;66408;51.326;12.070;2023-06-24T00:44:23;15.20;;;8.05;;
77332;SDS011;66408;51.326;12.070;2023-06-24T00:46:49;23.45;;;7.85;;
77332;SDS011;66408;51.326;12.070;2023-06-24T00:49:16;19.48;;;7.82;;
77332;SDS011;66408;51.326;12.070;2023-06-24T00:51:43;17.23;;;7.63;;
77332;SDS011;66408;51.326;12.070;2023-06-24T00:54:16;13.77;;;7.82;;
77332;SDS011;66408;51.326;12.070;2023-06-24T00:56:43;16.25;;;7.65;;
77332;SDS011;66408;51.326;12.070;2023-06-24T00:59:10;18.30;;;7.55;;
77332;SDS011;66408;51.326;12.070;2023-06-24T01:01:39;18.77;;;7.70;;
77332;SDS011;66408;51.326;12.070;2023-06-24T01:04:06;20.98;;;8.20;;
77332;SDS011;66408;51.326;12.070;2023-06-24T01:06:35;14.30;;;8.27;;
77332;SDS011;66408;51.326;12.070;2023-06-24T01:09:02;13.18;;;7.65;;
77332;SDS011;66408;51.326;12.070;2023-06-24T01:11:30;20.33;;;7.53;;
77332;SDS011;66408;51.326;12.070;2023-06-24T01:13:57;17.90;;;7.20;;
77332;SDS011;66408;51.326;12.070;2023-06-24T01:16:38;19.50;;;7.95;;
77332;SDS011;66408;51.326;12.070;2023-06-24T01:19:59;15.52;;;7.18;;
77332;SDS011;66408;51.326;12.070;2023-06-24T01:36:55;15.35;;;7.15;;
77332;SDS011;66408;51.326;12.070;2023-06-24T01:39:31;17.58;;;6.70;;
77332;SDS011;66408;51.326;12.070;2023-06-24T01:42:06;18.42;;;7.32;;
77332;SDS011;66408;51.326;12.070;2023-06-24T01:44:36;16.50;;;7.10;;
77332;SDS011;66408;51.326;12.070;2023-06-24T01:47:06;14.50;;;6.80;;
77332;SDS011;66408;51.326;12.070;2023-06-24T01:49:36;17.55;;;7.90;;
77332;SDS011;66408;51.326;12.070;2023-06-24T01:52:07;19.52;;;7.38;;
77332;SDS011;66408;51.326;12.070;2023-06-24T01:54:36;17.52;;;7.40;;
77332;SDS011;66408;51.326;12.070;2023-06-24T01:57:05;15.95;;;7.88;;
77332;SDS011;66408;51.326;12.070;2023-06-24T01:59:34;20.20;;;8.23;;
77332;SDS011;66408;51.326;12.070;2023-06-24T02:02:03;18.55;;;7.57;;
77332;SDS011;66408;51.326;12.070;2023-06-24T02:04:31;15.45;;;6.60;;
77332;SDS011;66408;51.326;12.070;2023-06-24T02:07:01;15.27;;;7.15;;
77332;SDS011;66408;51.326;12.070;2023-06-24T02:09:29;17.75;;;7.43;;
77332;SDS011;66408;51.326;12.070;2023-06-24T02:12:00;11.18;;;6.57;;
77332;SDS011;66408;51.326;12.070;2023-06-24T02:14:28;11.50;;;6.65;;
77332;SDS011;66408;51.326;12.070;2023-06-24T02:16:57;17.05;;;6.40;;
77332;SDS011;66408;51.326;12.070;2023-06-24T02:19:27;20.23;;;6.70;;
77332;SDS011;66408;51.326;12.070;2023-06-24T02:21:57;11.27;;;6.43;;
77332;SDS011;66408;51.326;12.070;2023-06-24T02:24:26;14.52;;;6.28;;
77332;SDS011;66408;51.326;12.070;2023-06-24T02:26:56;14.27;;;6.30;;
77332;SDS011;66408;51.326;12.070;2023-06-24T02:29:25;13.38;;;7.38;;
77332;SDS011;66408;51.326;12.070;2023-06-24T02:31:53;14.95;;;7.00;;
77332;SDS011;66408;51.326;12.070;2023-06-24T02:34:22;12.20;;;7.28;;
77332;SDS011;66408;51.326;12.070;2023-06-24T02:36:50;12.70;;;7.18;;
77332;SDS011;66408;51.326;12.070;2023-06-24T02:39:16;12.73;;;6.97;;
77332;SDS011;66408;51.326;12.070;2023-06-24T02:41:43;15.40;;;7.43;;
77332;SDS011;66408;51.326;12.070;2023-06-24T02:44:13;17.95;;;7.22;;
77332;SDS011;66408;51.326;12.070;2023-06-24T02:46:40;12.38;;;6.93;;
77332;SDS011;66408;51.326;12.070;2023-06-24T02:49:10;15.57;;;7.43;;
77332;SDS011;66408;51.326;12.070;2023-06-24T02:51:40;15.30;;;7.35;;
77332;SDS011;66408;51.326;12.070;2023-06-24T02:54:07;12.80;;;7.00;;
77332;SDS011;66408;51.326;12.070;2023-06-24T02:56:34;12.52;;;7.07;;
77332;SDS011;66408;51.326;12.070;2023-06-24T02:59:01;15.90;;;6.60;;
77332;SDS011;66408;51.326;12.070;2023-06-24T03:01:28;12.13;;;6.82;;
77332;SDS011;66408;51.326;12.070;2023-06-24T03:03:55;14.57;;;7.20;;
77332;SDS011;66408;51.326;12.070;2023-06-24T03:06:22;12.80;;;7.68;;
77332;SDS011;66408;51.326;12.070;2023-06-24T03:08:50;12.60;;;6.22;;
77332;SDS011;66408;51.326;12.070;2023-06-24T03:11:17;14.20;;;6.90;;
77332;SDS011;66408;51.326;12.070;2023-06-24T03:13:43;13.00;;;6.82;;
77332;SDS011;66408;51.326;12.070;2023-06-24T03:16:10;14.63;;;7.15;;
77332;SDS011;66408;51.326;12.070;2023-06-24T03:18:41;13.20;;;6.75;;
77332;SDS011;66408;51.326;12.070;2023-06-24T03:21:09;14.93;;;7.05;;
77332;SDS011;66408;51.326;12.070;2023-06-24T03:23:36;12.68;;;6.20;;
77332;SDS011;66408;51.326;12.070;2023-06-24T03:26:02;14.57;;;6.22;;
77332;SDS011;66408;51.326;12.070;2023-06-24T03:28:30;11.73;;;5.47;;
77332;SDS011;66408;51.326;12.070;2023-06-24T03:30:57;10.63;;;6.25;;
77332;SDS011;66408;51.326;12.070;2023-06-24T03:33:24;11.73;;;6.78;;
77332;SDS011;66408;51.326;12.070;2023-06-24T03:35:53;11.98;;;6.55;;
77332;SDS011;66408;51.326;12.070;2023-06-24T03:38:20;10.88;;;6.35;;
77332;SDS011;66408;51.326;12.070;2023-06-24T03:40:47;10.90;;;5.95;;
77332;SDS011;66408;51.326;12.070;2023-06-24T03:43:14;9.10;;;5.95;;
77332;SDS011;66408;51.326;12.070;2023-06-24T03:45:41;8.85;;;5.50;;
77332;SDS011;66408;51.326;12.070;2023-06-24T03:48:08;12.48;;;6.40;;
77332;SDS011;66408;51.326;12.070;2023-06-24T03:50:34;17.45;;;7.05;;
77332;SDS011;66408;51.326;12.070;2023-06-24T03:53:02;12.57;;;6.82;;
77332;SDS011;66408;51.326;12.070;2023-06-24T03:57:56;10.68;;;5.90;;
77332;SDS011;66408;51.326;12.070;2023-06-24T04:00:23;10.32;;;5.78;;
77332;SDS011;66408;51.326;12.070;2023-06-24T04:02:50;16.38;;;6.38;;
77332;SDS011;66408;51.326;12.070;2023-06-24T04:05:19;12.65;;;7.00;;
77332;SDS011;66408;51.326;12.070;2023-06-24T04:07:46;15.45;;;7.03;;
77332;SDS011;66408;51.326;12.070;2023-06-24T04:10:13;13.07;;;7.28;;
77332;SDS011;66408;51.326;12.070;2023-06-24T04:12:40;10.95;;;6.72;;
77332;SDS011;66408;51.326;12.070;2023-06-24T04:15:07;16.00;;;7.10;;
77332;SDS011;66408;51.326;12.070;2023-06-24T04:17:34;13.80;;;7.80;;
77332;SDS011;66408;51.326;12.070;2023-06-24T04:20:00;13.43;;;6.45;;
77332;SDS011;66408;51.326;12.070;2023-06-24T04:22:30;13.60;;;6.68;;
77332;SDS011;66408;51.326;12.070;2023-06-24T04:24:56;15.00;;;7.10;;
77332;SDS011;66408;51.326;12.070;2023-06-24T04:27:23;12.50;;;6.97;;
77332;SDS011;66408;51.326;12.070;2023-06-24T04:29:49;14.27;;;7.38;;
77332;SDS011;66408;51.326;12.070;2023-06-24T04:32:16;15.25;;;7.18;;
77332;SDS011;66408;51.326;12.070;2023-06-24T04:34:43;14.15;;;7.05;;
77332;SDS011;66408;51.326;12.070;2023-06-24T04:37:09;13.68;;;7.15;;
77332;SDS011;66408;51.326;12.070;2023-06-24T04:39:36;15.88;;;6.97;;
77332;SDS011;66408;51.326;12.070;2023-06-24T04:42:03;13.27;;;6.68;;
77332;SDS011;66408;51.326;12.070;2023-06-24T04:44:30;12.30;;;6.40;;
77332;SDS011;66408;51.326;12.070;2023-06-24T04:46:56;14.68;;;7.53;;
77332;SDS011;66408;51.326;12.070;2023-06-24T04:49:23;14.98;;;7.35;;
77332;SDS011;66408;51.326;12.070;2023-06-24T04:51:50;16.13;;;6.65;;
77332;SDS011;66408;51.326;12.070;2023-06-24T04:54:16;15.55;;;7.35;;
77332;SDS011;66408;51.326;12.070;2023-06-24T04:56:43;16.77;;;6.85;;
77332;SDS011;66408;51.326;12.070;2023-06-24T04:59:14;12.18;;;6.32;;
77332;SDS011;66408;51.326;12.070;2023-06-24T05:01:41;13.75;;;7.03;;
77332;SDS011;66408;51.326;12.070;2023-06-24T05:04:07;14.10;;;7.22;;
77332;SDS011;66408;51.326;12.070;2023-06-24T05:06:34;13.88;;;6.47;;
77332;SDS011;66408;51.326;12.070;2023-06-24T05:09:00;15.70;;;7.18;;
77332;SDS011;66408;51.326;12.070;2023-06-24T05:11:27;11.68;;;6.35;;
77332;SDS011;66408;51.326;12.070;2023-06-24T05:13:54;11.55;;;6.57;;
77332;SDS011;66408;51.326;12.070;2023-06-24T05:16:20;10.95;;;6.57;;
77332;SDS011;66408;51.326;12.070;2023-06-24T05:18:48;15.55;;;8.35;;
77332;SDS011;66408;51.326;12.070;2023-06-24T05:21:15;11.80;;;6.18;;
77332;SDS011;66408;51.326;12.070;2023-06-24T05:23:42;19.75;;;7.80;;
77332;SDS011;66408;51.326;12.070;2023-06-24T05:26:08;12.20;;;6.50;;
77332;SDS011;66408;51.326;12.070;2023-06-24T05:28:35;11.55;;;6.07;;
77332;SDS011;66408;51.326;12.070;2023-06-24T05:31:03;12.60;;;6.32;;
77332;SDS011;66408;51.326;12.070;2023-06-24T05:33:29;13.75;;;7.22;;
77332;SDS011;66408;51.326;12.070;2023-06-24T05:35:57;16.13;;;6.80;;
77332;SDS011;66408;51.326;12.070;2023-06-24T05:38:23;16.20;;;7.00;;
77332;SDS011;66408;51.326;12.070;2023-06-24T05:40:50;14.07;;;6.93;;
77332;SDS011;66408;51.326;12.070;2023-06-24T05:43:17;12.80;;;7.05;;
77332;SDS011;66408;51.326;12.070;2023-06-24T05:45:43;12.43;;;6.68;;
77332;SDS011;66408;51.326;12.070;2023-06-24T05:48:10;12.40;;;6.78;;
77332;SDS011;66408;51.326;12.070;2023-06-24T05:50:36;10.20;;;6.05;;
77332;SDS011;66408;51.326;12.070;2023-06-24T05:53:03;14.13;;;7.32;;
77332;SDS011;66408;51.326;12.070;2023-06-24T05:55:30;12.23;;;6.80;;
77332;SDS011;66408;51.326;12.070;2023-06-24T05:57:56;15.63;;;7.45;;
77332;SDS011;66408;51.326;12.070;2023-06-24T06:00:23;10.85;;;6.40;;
77332;SDS011;66408;51.326;12.070;2023-06-24T06:02:50;12.18;;;6.93;;
77332;SDS011;66408;51.326;12.070;2023-06-24T06:05:16;11.65;;;7.30;;
77332;SDS011;66408;51.326;12.070;2023-06-24T06:07:43;13.75;;;6.47;;
77332;SDS011;66408;51.326;12.070;2023-06-24T06:10:10;11.60;;;6.85;;
77332;SDS011;66408;51.326;12.070;2023-06-24T06:12:37;13.20;;;6.82;;
77332;SDS011;66408;51.326;12.070;2023-06-24T06:15:04;11.57;;;6.45;;
77332;SDS011;66408;51.326;12.070;2023-06-24T06:17:32;10.35;;;6.10;;
77332;SDS011;66408;51.326;12.070;2023-06-24T06:19:58;10.23;;;6.15;;
77332;SDS011;66408;51.326;12.070;2023-06-24T06:22:25;9.95;;;6.40;;
77332;SDS011;66408;51.326;12.070;2023-06-24T06:24:51;7.93;;;5.50;;
77332;SDS011;66408;51.326;12.070;2023-06-24T06:27:18;8.27;;;5.50;;
77332;SDS011;66408;51.326;12.070;2023-06-24T06:29:44;11.43;;;5.28;;
77332;SDS011;66408;51.326;12.070;2023-06-24T06:32:11;10.32;;;4.70;;
77332;SDS011;66408;51.326;12.070;2023-06-24T06:34:38;10.20;;;5.32;;
77332;SDS011;66408;51.326;12.070;2023-06-24T06:37:04;10.00;;;4.88;;
77332;SDS011;66408;51.326;12.070;2023-06-24T06:39:31;8.40;;;4.95;;
77332;SDS011;66408;51.326;12.070;2023-06-24T06:41:58;9.00;;;4.82;;
77332;SDS011;66408;51.326;12.070;2023-06-24T06:44:24;8.68;;;4.97;;
77332;SDS011;66408;51.326;12.070;2023-06-24T06:46:51;6.95;;;4.63;;
77332;SDS011;66408;51.326;12.070;2023-06-24T06:49:18;7.50;;;5.45;;
77332;SDS011;66408;51.326;12.070;2023-06-24T06:51:45;9.48;;;5.05;;
77332;SDS011;66408;51.326;12.070;2023-06-24T06:54:11;6.90;;;4.90;;
77332;SDS011;66408;51.326;12.070;2023-06-24T06:56:38;7.78;;;5.20;;
77332;SDS011;66408;51.326;12.070;2023-06-24T06:59:06;8.13;;;4.93;;
77332;SDS011;66408;51.326;12.070;2023-06-24T07:01:33;7.18;;;5.30;;
77332;SDS011;66408;51.326;12.070;2023-06-24T07:04:00;8.07;;;5.18;;
77332;SDS011;66408;51.326;12.070;2023-06-24T07:06:27;8.05;;;5.20;;
77332;SDS011;66408;51.326;12.070;2023-06-24T07:08:54;8.40;;;5.40;;
77332;SDS011;66408;51.326;12.070;2023-06-24T07:11:20;8.52;;;5.18;;
77332;SDS011;66408;51.326;12.070;2023-06-24T07:13:47;7.82;;;5.10;;
77332;SDS011;66408;51.326;12.070;2023-06-24T07:16:17;9.30;;;5.05;;
77332;SDS011;66408;51.326;12.070;2023-06-24T07:18:44;10.65;;;4.45;;
77332;SDS011;66408;51.326;12.070;2023-06-24T07:21:11;7.63;;;5.40;;
77332;SDS011;66408;51.326;12.070;2023-06-24T07:23:37;7.28;;;4.80;;
77332;SDS011;66408;51.326;12.070;2023-06-24T07:26:04;7.03;;;5.28;;
77332;SDS011;66408;51.326;12.070;2023-06-24T07:28:31;8.48;;;4.50;;
77332;SDS011;66408;51.326;12.070;2023-06-24T07:30:57;8.13;;;5.03;;
77332;SDS011;66408;51.326;12.070;2023-06-24T07:33:24;7.80;;;5.07;;
77332;SDS011;66408;51.326;12.070;2023-06-24T07:35:51;6.35;;;4.70;;
77332;SDS011;66408;51.326;12.070;2023-06-24T07:38:18;7.20;;;5.10;;
77332;SDS011;66408;51.326;12.070;2023-06-24T07:40:45;6.47;;;4.20;;
77332;SDS011;66408;51.326;12.070;2023-06-24T07:43:11;8.43;;;5.15;;
77332;SDS011;66408;51.326;12.070;2023-06-24T07:45:38;8.15;;;5.15;;
77332;SDS011;66408;51.326;12.070;2023-06-24T07:48:05;7.20;;;5.30;;
77332;SDS011;66408;51.326;12.070;2023-06-24T07:50:33;7.53;;;5.22;;
77332;SDS011;66408;51.326;12.070;2023-06-24T07:53:01;7.38;;;4.90;;
77332;SDS011;66408;51.326;12.070;2023-06-24T07:55:28;7.20;;;4.90;;
77332;SDS011;66408;51.326;12.070;2023-06-24T07:57:55;9.40;;;5.75;;
77332;SDS011;66408;51.326;12.070;2023-06-24T08:00:22;9.18;;;4.53;;
77332;SDS011;66408;51.326;12.070;2023-06-24T08:02:49;6.10;;;4.50;;
77332;SDS011;66408;51.326;12.070;2023-06-24T08:05:15;8.20;;;5.43;;
77332;SDS011;66408;51.326;12.070;2023-06-24T08:07:44;7.93;;;4.88;;
77332;SDS011;66408;51.326;12.070;2023-06-24T08:10:11;7.15;;;4.80;;
77332;SDS011;66408;51.326;12.070;2023-06-24T08:12:38;6.05;;;4.57;;
77332;SDS011;66408;51.326;12.070;2023-06-24T08:15:04;6.43;;;4.60;;
77332;SDS011;66408;51.326;12.070;2023-06-24T08:17:31;6.93;;;4.75;;
77332;SDS011;66408;51.326;12.070;2023-06-24T08:19:58;6.82;;;5.13;;
77332;SDS011;66408;51.326;12.070;2023-06-24T08:22:25;5.18;;;4.38;;
77332;SDS011;66408;51.326;12.070;2023-06-24T08:24:51;7.90;;;4.60;;
77332;SDS011;66408;51.326;12.070;2023-06-24T08:27:18;8.10;;;4.50;;
77332;SDS011;66408;51.326;12.070;2023-06-24T08:29:45;7.10;;;4.00;;
77332;SDS011;66408;51.326;12.070;2023-06-24T08:32:11;5.40;;;4.18;;
77332;SDS011;66408;51.326;12.070;2023-06-24T08:34:38;5.97;;;3.70;;
77332;SDS011;66408;51.326;12.070;2023-06-24T08:37:04;8.18;;;4.85;;
77332;SDS011;66408;51.326;12.070;2023-06-24T08:39:31;5.97;;;4.25;;
77332;SDS011;66408;51.326;12.070;2023-06-24T08:41:58;5.97;;;4.45;;
77332;SDS011;66408;51.326;12.070;2023-06-24T08:44:24;5.35;;;4.20;;
77332;SDS011;66408;51.326;12.070;2023-06-24T08:46:51;6.95;;;4.50;;
77332;SDS011;66408;51.326;12.070;2023-06-24T08:52:02;5.55;;;3.90;;
77332;SDS011;66408;51.326;12.070;2023-06-24T08:54:30;4.53;;;3.50;;
77332;SDS011;66408;51.326;12.070;2023-06-24T08:57:01;6.53;;;4.18;;
77332;SDS011;66408;51.326;12.070;2023-06-24T08:59:32;6.10;;;3.83;;
77332;SDS011;66408;51.326;12.070;2023-06-24T09:02:00;5.60;;;3.95;;
77332;SDS011;66408;51.326;12.070;2023-06-24T09:04:27;6.85;;;3.53;;
77332;SDS011;66408;51.326;12.070;2023-06-24T09:06:54;6.65;;;3.53;;
77332;SDS011;66408;51.326;12.070;2023-06-24T09:09:22;4.70;;;3.70;;
77332;SDS011;66408;51.326;12.070;2023-06-24T09:11:53;7.45;;;3.70;;
77332;SDS011;66408;51.326;12.070;2023-06-24T09:14:23;5.88;;;3.33;;
77332;SDS011;66408;51.326;12.070;2023-06-24T09:16:57;8.30;;;3.78;;
77332;SDS011;66408;51.326;12.070;2023-06-24T09:19:28;5.35;;;3.85;;
77332;SDS011;66408;51.326;12.070;2023-06-24T09:22:01;5.38;;;3.40;;
77332;SDS011;66408;51.326;12.070;2023-06-24T09:24:34;4.38;;;3.33;;
77332;SDS011;66408;51.326;12.070;2023-06-24T09:27:04;5.22;;;3.67;;
77332;SDS011;66408;51.326;12.070;2023-06-24T09:29:32;4.53;;;3.22;;
77332;SDS011;66408;51.326;12.070;2023-06-24T09:32:00;7.75;;;4.10;;
77332;SDS011;66408;51.326;12.070;2023-06-24T09:34:31;5.53;;;3.40;;
77332;SDS011;66408;51.326;12.070;2023-06-24T09:36:58;4.03;;;3.60;;
77332;SDS011;66408;51.326;12.070;2023-06-24T09:39:26;5.50;;;3.60;;
77332;SDS011;66408;51.326;12.070;2023-06-24T09:41:57;4.82;;;3.80;;
77332;SDS011;66408;51.326;12.070;2023-06-24T09:44:25;4.75;;;3.42;;
77332;SDS011;66408;51.326;12.070;2023-06-24T09:46:53;3.88;;;3.05;;
77332;SDS011;66408;51.326;12.070;2023-06-24T09:49:20;3.67;;;2.95;;
77332;SDS011;66408;51.326;12.070;2023-06-24T09:51:47;3.70;;;3.03;;
77332;SDS011;66408;51.326;12.070;2023-06-24T09:54:16;7.55;;;3.40;;
77332;SDS011;66408;51.326;12.070;2023-06-24T09:56:43;4.93;;;2.97;;
77332;SDS011;66408;51.326;12.070;2023-06-24T09:59:19;5.90;;;3.40;;
77332;SDS011;66408;51.326;12.070;2023-06-24T10:01:48;3.83;;;3.00;;
77332;SDS011;66408;51.326;12.070;2023-06-24T10:04:21;4.93;;;3.35;;
77332;SDS011;66408;51.326;12.070;2023-06-24T10:06:51;7.43;;;3.13;;
77332;SDS011;66408;51.326;12.070;2023-06-24T10:09:18;4.38;;;3.70;;
77332;SDS011;66408;51.326;12.070;2023-06-24T10:11:45;6.18;;;3.53;;
77332;SDS011;66408;51.326;12.070;2023-06-24T10:14:13;5.07;;;3.25;;
77332;SDS011;66408;51.326;12.070;2023-06-24T10:16:42;5.80;;;3.78;;
77332;SDS011;66408;51.326;12.070;2023-06-24T10:19:10;3.95;;;3.45;;
77332;SDS011;66408;51.326;12.070;2023-06-24T10:21:47;5.28;;;3.53;;
77332;SDS011;66408;51.326;12.070;2023-06-24T10:24:31;4.57;;;3.60;;
77332;SDS011;66408;51.326;12.070;2023-06-24T10:27:07;5.38;;;3.65;;
77332;SDS011;66408;51.326;12.070;2023-06-24T10:29:38;3.80;;;3.40;;
77332;SDS011;66408;51.326;12.070;2023-06-24T10:32:06;5.05;;;3.33;;
77332;SDS011;66408;51.326;12.070;2023-06-24T10:34:34;3.60;;;3.15;;
77332;SDS011;66408;51.326;12.070;2023-06-24T10:37:19;4.18;;;3.45;;
77332;SDS011;66408;51.326;12.070;2023-06-24T10:42:38;5.03;;;3.38;;
77332;SDS011;66408;51.326;12.070;2023-06-24T10:47:40;4.20;;;3.25;;
77332;SDS011;66408;51.326;12.070;2023-06-24T10:50:10;3.63;;;3.30;;
77332;SDS011;66408;51.326;12.070;2023-06-24T10:52:38;3.47;;;3.10;;
77332;SDS011;66408;51.326;12.070;2023-06-24T10:55:10;4.00;;;3.00;;
77332;SDS011;66408;51.326;12.070;2023-06-24T10:57:39;4.28;;;3.25;;
77332;SDS011;66408;51.326;12.070;2023-06-24T11:00:06;4.45;;;3.58;;
77332;SDS011;66408;51.326;12.070;2023-06-24T11:02:33;3.58;;;2.65;;
77332;SDS011;66408;51.326;12.070;2023-06-24T11:05:00;5.22;;;3.30;;
77332;SDS011;66408;51.326;12.070;2023-06-24T11:07:29;3.63;;;2.63;;
77332;SDS011;66408;51.326;12.070;2023-06-24T11:10:06;3.55;;;2.65;;
77332;SDS011;66408;51.326;12.070;2023-06-24T11:12:40;3.78;;;3.13;;
77332;SDS011;66408;51.326;12.070;2023-06-24T11:15:09;4.25;;;2.92;;
77332;SDS011;66408;51.326;12.070;2023-06-24T11:17:37;3.92;;;2.80;;
77332;SDS011;66408;51.326;12.070;2023-06-24T11:20:09;5.60;;;3.30;;
77332;SDS011;66408;51.326;12.070;2023-06-24T11:22:42;3.88;;;2.97;;
77332;SDS011;66408;51.326;12.070;2023-06-24T11:25:17;4.55;;;2.90;;
77332;SDS011;66408;51.326;12.070;2023-06-24T11:27:51;3.63;;;2.75;;
77332;SDS011;66408;51.326;12.070;2023-06-24T11:30:19;4.07;;;3.20;;
77332;SDS011;66408;51.326;12.070;2023-06-24T11:32:46;3.63;;;2.80;;
77332;SDS011;66408;51.326;12.070;2023-06-24T11:35:14;5.07;;;3.40;;
77332;SDS011;66408;51.326;12.070;2023-06-24T11:37:43;3.67;;;2.80;;
77332;SDS011;66408;51.326;12.070;2023-06-24T11:40:11;3.17;;;2.63;;
77332;SDS011;66408;51.326;12.070;2023-06-24T11:42:40;3.90;;;2.83;;
77332;SDS011;66408;51.326;12.070;2023-06-24T11:45:11;4.10;;;3.42;;
77332;SDS011;66408;51.326;12.070;2023-06-24T11:47:41;5.68;;;3.10;;
77332;SDS011;66408;51.326;12.070;2023-06-24T11:50:08;4.03;;;3.15;;
77332;SDS011;66408;51.326;12.070;2023-06-24T11:52:43;5.05;;;3.28;;
77332;SDS011;66408;51.326;12.070;2023-06-24T11:55:12;4.57;;;2.95;;
77332;SDS011;66408;51.326;12.070;2023-06-24T11:57:56;4.03;;;3.03;;
77332;SDS011;66408;51.326;12.070;2023-06-24T12:00:32;4.65;;;2.92;;
77332;SDS011;66408;51.326;12.070;2023-06-24T12:03:04;4.70;;;2.80;;
77332;SDS011;66408;51.326;12.070;2023-06-24T12:05:36;4.00;;;3.00;;
77332;SDS011;66408;51.326;12.070;2023-06-24T12:08:07;3.10;;;2.80;;
77332;SDS011;66408;51.326;12.070;2023-06-24T12:10:37;3.17;;;2.67;;
77332;SDS011;66408;51.326;12.070;2023-06-24T12:13:05;6.82;;;2.90;;
77332;SDS011;66408;51.326;12.070;2023-06-24T12:15:33;3.25;;;2.83;;
77332;SDS011;66408;51.326;12.070;2023-06-24T12:18:00;4.45;;;3.30;;
77332;SDS011;66408;51.326;12.070;2023-06-24T12:20:28;4.03;;;3.05;;
77332;SDS011;66408;51.326;12.070;2023-06-24T12:23:01;3.97;;;2.83;;
77332;SDS011;66408;51.326;12.070;2023-06-24T12:25:29;5.13;;;3.10;;
77332;SDS011;66408;51.326;12.070;2023-06-24T12:27:56;4.78;;;3.30;;
77332;SDS011;66408;51.326;12.070;2023-06-24T12:30:23;4.32;;;3.10;;
77332;SDS011;66408;51.326;12.070;2023-06-24T12:32:50;3.22;;;2.90;;
77332;SDS011;66408;51.326;12.070;2023-06-24T12:35:17;4.20;;;3.50;;
77332;SDS011;66408;51.326;12.070;2023-06-24T12:37:44;3.55;;;2.45;;
77332;SDS011;66408;51.326;12.070;2023-06-24T12:40:12;3.75;;;3.03;;
77332;SDS011;66408;51.326;12.070;2023-06-24T12:42:39;3.13;;;2.78;;
77332;SDS011;66408;51.326;12.070;2023-06-24T12:45:05;3.42;;;2.85;;
77332;SDS011;66408;51.326;12.070;2023-06-24T12:47:34;5.18;;;3.03;;
77332;SDS011;66408;51.326;12.070;2023-06-24T12:50:01;4.72;;;2.97;;
77332;SDS011;66408;51.326;12.070;2023-06-24T12:52:28;3.40;;;3.10;;
77332;SDS011;66408;51.326;12.070;2023-06-24T12:54:54;5.15;;;3.03;;
77332;SDS011;66408;51.326;12.070;2023-06-24T12:57:21;3.60;;;3.13;;
77332;SDS011;66408;51.326;12.070;2023-06-24T12:59:48;4.57;;;2.55;;
77332;SDS011;66408;51.326;12.070;2023-06-24T13:02:14;3.20;;;2.67;;
77332;SDS011;66408;51.326;12.070;2023-06-24T13:04:41;4.45;;;2.92;;
77332;SDS011;66408;51.326;12.070;2023-06-24T13:07:08;3.55;;;2.60;;
77332;SDS011;66408;51.326;12.070;2023-06-24T13:09:37;3.90;;;2.90;;
77332;SDS011;66408;51.326;12.070;2023-06-24T13:12:04;4.43;;;2.90;;
77332;SDS011;66408;51.326;12.070;2023-06-24T13:14:31;3.88;;;2.85;;
77332;SDS011;66408;51.326;12.070;2023-06-24T13:16:57;3.67;;;2.80;;
77332;SDS011;66408;51.326;12.070;2023-06-24T13:19:24;4.55;;;2.95;;
77332;SDS011;66408;51.326;12.070;2023-06-24T13:21:51;4.65;;;2.88;;
77332;SDS011;66408;51.326;12.070;2023-06-24T13:24:17;3.72;;;2.70;;
77332;SDS011;66408;51.326;12.070;2023-06-24T13:26:44;3.30;;;2.85;;
77332;SDS011;66408;51.326;12.070;2023-06-24T13:29:14;4.75;;;3.30;;
77332;SDS011;66408;51.326;12.070;2023-06-24T13:31:46;3.35;;;2.47;;
77332;SDS011;66408;51.326;12.070;2023-06-24T13:34:13;3.97;;;2.83;;
77332;SDS011;66408;51.326;12.070;2023-06-24T13:36:40;3.42;;;2.85;;
77332;SDS011;66408;51.326;12.070;2023-06-24T13:39:07;3.28;;;2.58;;
77332;SDS011;66408;51.326;12.070;2023-06-24T13:41:35;4.05;;;3.13;;
77332;SDS011;66408;51.326;12.070;2023-06-24T13:44:02;4.50;;;2.88;;
77332;SDS011;66408;51.326;12.070;2023-06-24T13:46:30;4.15;;;2.83;;
77332;SDS011;66408;51.326;12.070;2023-06-24T13:51:25;3.00;;;2.60;;
77332;SDS011;66408;51.326;12.070;2023-06-24T13:53:52;3.15;;;2.53;;
77332;SDS011;66408;51.326;12.070;2023-06-24T13:56:21;3.30;;;2.80;;
77332;SDS011;66408;51.326;12.070;2023-06-24T13:58:49;3.15;;;2.40;;
77332;SDS011;66408;51.326;12.070;2023-06-24T14:01:17;4.00;;;2.75;;
77332;SDS011;66408;51.326;12.070;2023-06-24T14:03:44;3.90;;;2.80;;
77332;SDS011;66408;51.326;12.070;2023-06-24T14:06:13;3.28;;;2.30;;
77332;SDS011;66408;51.326;12.070;2023-06-24T14:08:42;3.70;;;2.65;;
77332;SDS011;66408;51.326;12.070;2023-06-24T14:11:09;4.72;;;2.70;;
77332;SDS011;66408;51.326;12.070;2023-06-24T14:13:36;4.15;;;2.83;;
77332;SDS011;66408;51.326;12.070;2023-06-24T14:16:03;3.25;;;2.90;;
77332;SDS011;66408;51.326;12.070;2023-06-24T14:18:32;3.08;;;2.45;;
77332;SDS011;66408;51.326;12.070;2023-06-24T14:20:59;2.97;;;2.55;;
77332;SDS011;66408;51.326;12.070;2023-06-24T14:23:27;2.83;;;2.20;;
77332;SDS011;66408;51.326;12.070;2023-06-24T14:25:55;3.30;;;2.42;;
77332;SDS011;66408;51.326;12.070;2023-06-24T14:28:22;3.08;;;2.45;;
77332;SDS011;66408;51.326;12.070;2023-06-24T14:30:49;4.53;;;2.47;;
77332;SDS011;66408;51.326;12.070;2023-06-24T14:33:15;4.50;;;2.33;;
77332;SDS011;66408;51.326;12.070;2023-06-24T14:35:42;2.75;;;2.30;;
77332;SDS011;66408;51.326;12.070;2023-06-24T14:38:09;3.05;;;2.35;;
77332;SDS011;66408;51.326;12.070;2023-06-24T14:40:36;2.65;;;2.40;;
77332;SDS011;66408;51.326;12.070;2023-06-24T14:43:03;4.38;;;2.55;;
77332;SDS011;66408;51.326;12.070;2023-06-24T14:45:29;3.33;;;2.63;;
77332;SDS011;66408;51.326;12.070;2023-06-24T14:47:56;4.57;;;2.42;;
77332;SDS011;66408;51.326;12.070;2023-06-24T14:50:24;3.30;;;2.42;;
77332;SDS011;66408;51.326;12.070;2023-06-24T14:52:50;3.92;;;2.75;;
77332;SDS011;66408;51.326;12.070;2023-06-24T14:55:17;4.20;;;2.47;;
77332;SDS011;66408;51.326;12.070;2023-06-24T14:57:44;3.55;;;2.63;;
77332;SDS011;66408;51.326;12.070;2023-06-24T15:00:11;2.92;;;2.45;;
77332;SDS011;66408;51.326;12.070;2023-06-24T15:02:38;3.47;;;2.42;;